sensor_id;sensor_type;location;lat;lon;timestamp;temperature;humidity
25058;DHT22;13057;50.978;11.034;2023-03-01T00:02:06;0.80;99.90
25058;DHT22;13057;50.978;11.034;2023-03-01T00:04:32;0.80;99.90
25058;DHT22;13057;50.978;11.034;2023-03-01T00:06:58;0.80;99.90
25058;DHT22;13057;50.978;11.034;2023-03-01T00:09:24;0.80;99.90
25058;DHT22;13057;50.978;11.034;2023-03-01T00:11:51;0.80;99.90
25058;DHT22;13057;50.978;11.034;2023-03-01T00:14:17;0.80;99.90
25058;DHT22;13057;50.978;11.034;2023-03-01T00:16:43;0.80;99.90
25058;DHT22;13057;50.978;11.034;2023-03-01T00:19:13;0.80;99.90
25058;DHT22;13057;50.978;11.034;2023-03-01T00:21:40;0.70;99.90
25058;DHT22;13057;50.978;11.034;2023-03-01T00:24:07;0.70;99.90
25058;DHT22;13057;50.978;11.034;2023-03-01T00:26:33;0.70;99.90
25058;DHT22;13057;50.978;11.034;2023-03-01T00:28:59;0.70;99.90
25058;DHT22;13057;50.978;11.034;2023-03-01T00:31:28;0.70;99.90
25058;DHT22;13057;50.978;11.034;2023-03-01T00:33:57;0.70;99.90
25058;DHT22;13057;50.978;11.034;2023-03-01T00:36:26;0.70;99.90
25058;DHT22;13057;50.978;11.034;2023-03-01T00:38:52;0.80;99.90
25058;DHT22;13057;50.978;11.034;2023-03-01T00:41:18;0.70;99.90
25058;DHT22;13057;50.978;11.034;2023-03-01T00:43:45;0.70;99.90
25058;DHT22;13057;50.978;11.034;2023-03-01T00:46:15;0.70;99.90
25058;DHT22;13057;50.978;11.034;2023-03-01T00:48:41;0.60;99.90
25058;DHT22;13057;50.978;11.034;2023-03-01T00:51:11;0.60;99.90
25058;DHT22;13057;50.978;11.034;2023-03-01T00:53:37;0.60;99.90
25058;DHT22;13057;50.978;11.034;2023-03-01T00:56:04;0.70;99.90
25058;DHT22;13057;50.978;11.034;2023-03-01T00:58:30;0.70;99.90
25058;DHT22;13057;50.978;11.034;2023-03-01T01:00:56;0.70;99.90
25058;DHT22;13057;50.978;11.034;2023-03-01T01:03:23;0.70;99.90
25058;DHT22;13057;50.978;11.034;2023-03-01T01:05:51;0.70;99.90
25058;DHT22;13057;50.978;11.034;2023-03-01T01:08:18;0.70;99.90
25058;DHT22;13057;50.978;11.034;2023-03-01T01:10:45;0.70;99.90
25058;DHT22;13057;50.978;11.034;2023-03-01T01:13:12;0.70;99.90
25058;DHT22;13057;50.978;11.034;2023-03-01T01:15:38;0.70;99.90
25058;DHT22;13057;50.978;11.034;2023-03-01T01:18:04;0.70;99.90
25058;DHT22;13057;50.978;11.034;2023-03-01T01:20:30;0.70;99.90
25058;DHT22;13057;50.978;11.034;2023-03-01T01:22:55;0.70;99.90
25058;DHT22;13057;50.978;11.034;2023-03-01T01:25:21;0.60;99.90
25058;DHT22;13057;50.978;11.034;2023-03-01T01:27:50;0.50;99.90
25058;DHT22;13057;50.978;11.034;2023-03-01T01:30:17;0.50;99.90
25058;DHT22;13057;50.978;11.034;2023-03-01T01:32:42;0.50;99.90
25058;DHT22;13057;50.978;11.034;2023-03-01T01:35:08;0.40;99.90
25058;DHT22;13057;50.978;11.034;2023-03-01T01:37:34;0.40;99.90
25058;DHT22;13057;50.978;11.034;2023-03-01T01:40:01;0.40;99.90
25058;DHT22;13057;50.978;11.034;2023-03-01T01:42:29;0.50;99.90
25058;DHT22;13057;50.978;11.034;2023-03-01T01:47:45;0.50;99.90
25058;DHT22;13057;50.978;11.034;2023-03-01T01:50:16;0.60;99.90
25058;DHT22;13057;50.978;11.034;2023-03-01T01:52:43;0.60;99.90
25058;DHT22;13057;50.978;11.034;2023-03-01T01:55:11;0.50;99.90
25058;DHT22;13057;50.978;11.034;2023-03-01T01:57:45;0.50;99.90
25058;DHT22;13057;50.978;11.034;2023-03-01T02:00:18;0.50;99.90
25058;DHT22;13057;50.978;11.034;2023-03-01T02:02:45;0.50;99.90
25058;DHT22;13057;50.978;11.034;2023-03-01T02:05:22;0.50;99.90
25058;DHT22;13057;50.978;11.034;2023-03-01T02:07:50;0.60;99.90
25058;DHT22;13057;50.978;11.034;2023-03-01T02:10:16;0.60;99.90
25058;DHT22;13057;50.978;11.034;2023-03-01T02:12:43;0.60;99.90
25058;DHT22;13057;50.978;11.034;2023-03-01T02:15:09;0.60;99.90
25058;DHT22;13057;50.978;11.034;2023-03-01T02:17:35;0.60;99.90
25058;DHT22;13057;50.978;11.034;2023-03-01T02:20:21;0.50;99.90
25058;DHT22;13057;50.978;11.034;2023-03-01T02:22:49;0.50;99.90
25058;DHT22;13057;50.978;11.034;2023-03-01T02:25:30;0.50;99.90
25058;DHT22;13057;50.978;11.034;2023-03-01T02:28:05;0.50;99.90
25058;DHT22;13057;50.978;11.034;2023-03-01T02:30:34;0.50;99.90
25058;DHT22;13057;50.978;11.034;2023-03-01T02:33:03;0.50;99.90
25058;DHT22;13057;50.978;11.034;2023-03-01T02:35:35;0.50;99.90
25058;DHT22;13057;50.978;11.034;2023-03-01T02:38:03;0.50;99.90
25058;DHT22;13057;50.978;11.034;2023-03-01T02:40:33;0.50;99.90
25058;DHT22;13057;50.978;11.034;2023-03-01T02:43:00;0.40;99.90
25058;DHT22;13057;50.978;11.034;2023-03-01T02:45:26;0.30;99.90
25058;DHT22;13057;50.978;11.034;2023-03-01T02:47:55;0.30;99.90
25058;DHT22;13057;50.978;11.034;2023-03-01T02:50:44;0.30;99.90
25058;DHT22;13057;50.978;11.034;2023-03-01T02:53:16;0.20;99.90
25058;DHT22;13057;50.978;11.034;2023-03-01T02:55:43;0.10;99.90
25058;DHT22;13057;50.978;11.034;2023-03-01T02:58:09;0.10;99.90
25058;DHT22;13057;50.978;11.034;2023-03-01T03:00:38;0.10;99.90
25058;DHT22;13057;50.978;11.034;2023-03-01T03:03:05;0.10;99.90
25058;DHT22;13057;50.978;11.034;2023-03-01T03:05:31;0.10;99.90
25058;DHT22;13057;50.978;11.034;2023-03-01T03:08:00;0.10;99.90
25058;DHT22;13057;50.978;11.034;2023-03-01T03:10:29;0.10;99.90
25058;DHT22;13057;50.978;11.034;2023-03-01T03:12:59;0.10;99.90
25058;DHT22;13057;50.978;11.034;2023-03-01T03:15:27;0.10;99.90
25058;DHT22;13057;50.978;11.034;2023-03-01T03:17:53;0.10;99.90
25058;DHT22;13057;50.978;11.034;2023-03-01T03:20:21;0.00;99.90
25058;DHT22;13057;50.978;11.034;2023-03-01T03:22:50;0.00;99.90
25058;DHT22;13057;50.978;11.034;2023-03-01T03:25:17;0.00;99.90
25058;DHT22;13057;50.978;11.034;2023-03-01T03:27:45;0.00;99.90
25058;DHT22;13057;50.978;11.034;2023-03-01T03:30:19;0.00;99.90
25058;DHT22;13057;50.978;11.034;2023-03-01T03:32:46;0.00;99.90
25058;DHT22;13057;50.978;11.034;2023-03-01T03:35:25;-0.10;99.90
25058;DHT22;13057;50.978;11.034;2023-03-01T03:37:52;-0.10;99.90
25058;DHT22;13057;50.978;11.034;2023-03-01T03:40:30;-0.10;99.90
25058;DHT22;13057;50.978;11.034;2023-03-01T03:42:57;-0.20;99.90
25058;DHT22;13057;50.978;11.034;2023-03-01T03:45:23;-0.20;99.90
25058;DHT22;13057;50.978;11.034;2023-03-01T03:47:49;-0.20;99.90
25058;DHT22;13057;50.978;11.034;2023-03-01T03:50:16;-0.30;99.90
25058;DHT22;13057;50.978;11.034;2023-03-01T03:52:42;-0.30;99.90
25058;DHT22;13057;50.978;11.034;2023-03-01T03:55:09;-0.40;99.90
25058;DHT22;13057;50.978;11.034;2023-03-01T03:57:37;-0.40;99.90
25058;DHT22;13057;50.978;11.034;2023-03-01T04:00:04;-0.30;99.90
25058;DHT22;13057;50.978;11.034;2023-03-01T04:02:31;-0.30;99.90
25058;DHT22;13057;50.978;11.034;2023-03-01T04:04:57;-0.30;99.90
25058;DHT22;13057;50.978;11.034;2023-03-01T04:07:23;-0.30;99.90
25058;DHT22;13057;50.978;11.034;2023-03-01T04:09:49;-0.30;99.90
25058;DHT22;13057;50.978;11.034;2023-03-01T04:12:14;-0.30;99.90
25058;DHT22;13057;50.978;11.034;2023-03-01T04:14:46;-0.30;99.90
25058;DHT22;13057;50.978;11.034;2023-03-01T04:17:12;-0.40;99.90
25058;DHT22;13057;50.978;11.034;2023-03-01T04:19:38;-0.30;99.90
25058;DHT22;13057;50.978;11.034;2023-03-01T04:22:03;-0.40;99.90
25058;DHT22;13057;50.978;11.034;2023-03-01T04:24:35;-0.40;99.90
25058;DHT22;13057;50.978;11.034;2023-03-01T04:27:02;-0.40;99.90
25058;DHT22;13057;50.978;11.034;2023-03-01T04:29:28;-0.40;99.90
25058;DHT22;13057;50.978;11.034;2023-03-01T04:31:53;-0.40;99.90
25058;DHT22;13057;50.978;11.034;2023-03-01T04:34:20;-0.40;99.90
25058;DHT22;13057;50.978;11.034;2023-03-01T04:36:45;-0.40;99.90
25058;DHT22;13057;50.978;11.034;2023-03-01T04:39:11;-0.40;99.90
25058;DHT22;13057;50.978;11.034;2023-03-01T04:41:38;-0.40;99.90
25058;DHT22;13057;50.978;11.034;2023-03-01T04:44:06;-0.50;99.90
25058;DHT22;13057;50.978;11.034;2023-03-01T04:46:32;-0.60;99.90
25058;DHT22;13057;50.978;11.034;2023-03-01T04:48:57;-0.60;99.90
25058;DHT22;13057;50.978;11.034;2023-03-01T04:51:24;-0.60;99.90
25058;DHT22;13057;50.978;11.034;2023-03-01T04:53:49;-0.60;99.90
25058;DHT22;13057;50.978;11.034;2023-03-01T04:56:16;-0.70;99.90
25058;DHT22;13057;50.978;11.034;2023-03-01T04:58:44;-0.70;99.90
25058;DHT22;13057;50.978;11.034;2023-03-01T05:01:13;-0.70;99.90
25058;DHT22;13057;50.978;11.034;2023-03-01T05:03:45;-0.70;99.90
25058;DHT22;13057;50.978;11.034;2023-03-01T05:06:11;-0.80;99.90
25058;DHT22;13057;50.978;11.034;2023-03-01T05:08:38;-0.80;99.90
25058;DHT22;13057;50.978;11.034;2023-03-01T05:11:04;-0.80;99.90
25058;DHT22;13057;50.978;11.034;2023-03-01T05:13:31;-0.80;99.90
25058;DHT22;13057;50.978;11.034;2023-03-01T05:15:59;-0.90;99.90
25058;DHT22;13057;50.978;11.034;2023-03-01T05:18:26;-1.00;99.90
25058;DHT22;13057;50.978;11.034;2023-03-01T05:20:54;-1.10;99.90
25058;DHT22;13057;50.978;11.034;2023-03-01T05:23:22;-1.10;99.90
25058;DHT22;13057;50.978;11.034;2023-03-01T05:25:48;-1.10;99.90
25058;DHT22;13057;50.978;11.034;2023-03-01T05:28:18;-1.10;99.90
25058;DHT22;13057;50.978;11.034;2023-03-01T05:30:45;-1.10;99.90
25058;DHT22;13057;50.978;11.034;2023-03-01T05:33:11;-1.10;99.90
25058;DHT22;13057;50.978;11.034;2023-03-01T05:35:41;-1.10;99.90
25058;DHT22;13057;50.978;11.034;2023-03-01T05:38:08;-1.10;99.90
25058;DHT22;13057;50.978;11.034;2023-03-01T05:40:34;-1.10;99.90
25058;DHT22;13057;50.978;11.034;2023-03-01T05:43:00;-1.10;99.90
25058;DHT22;13057;50.978;11.034;2023-03-01T05:45:27;-1.10;99.90
25058;DHT22;13057;50.978;11.034;2023-03-01T05:47:54;-1.20;99.90
25058;DHT22;13057;50.978;11.034;2023-03-01T05:50:26;-1.20;99.90
25058;DHT22;13057;50.978;11.034;2023-03-01T05:52:59;-1.10;99.90
25058;DHT22;13057;50.978;11.034;2023-03-01T05:55:25;-1.10;99.90
25058;DHT22;13057;50.978;11.034;2023-03-01T05:57:51;-1.20;99.90
25058;DHT22;13057;50.978;11.034;2023-03-01T06:00:19;-1.20;99.90
25058;DHT22;13057;50.978;11.034;2023-03-01T06:02:45;-1.10;99.90
25058;DHT22;13057;50.978;11.034;2023-03-01T06:05:12;-1.10;99.90
25058;DHT22;13057;50.978;11.034;2023-03-01T06:07:39;-1.10;99.90
25058;DHT22;13057;50.978;11.034;2023-03-01T06:10:07;-1.10;99.90
25058;DHT22;13057;50.978;11.034;2023-03-01T06:12:34;-1.10;99.90
25058;DHT22;13057;50.978;11.034;2023-03-01T06:15:01;-1.10;99.90
25058;DHT22;13057;50.978;11.034;2023-03-01T06:17:30;-1.00;99.90
25058;DHT22;13057;50.978;11.034;2023-03-01T06:19:56;-1.10;99.90
25058;DHT22;13057;50.978;11.034;2023-03-01T06:22:22;-1.10;99.90
25058;DHT22;13057;50.978;11.034;2023-03-01T06:24:48;-1.10;99.90
25058;DHT22;13057;50.978;11.034;2023-03-01T06:27:14;-1.10;99.90
25058;DHT22;13057;50.978;11.034;2023-03-01T06:29:40;-1.10;99.90
25058;DHT22;13057;50.978;11.034;2023-03-01T06:32:06;-1.10;99.90
25058;DHT22;13057;50.978;11.034;2023-03-01T06:34:33;-1.10;99.90
25058;DHT22;13057;50.978;11.034;2023-03-01T06:36:59;-1.10;99.90
25058;DHT22;13057;50.978;11.034;2023-03-01T06:39:27;-1.00;99.90
25058;DHT22;13057;50.978;11.034;2023-03-01T06:41:53;-1.00;99.90
25058;DHT22;13057;50.978;11.034;2023-03-01T06:44:19;-1.00;99.90
25058;DHT22;13057;50.978;11.034;2023-03-01T06:46:45;-0.90;99.90
25058;DHT22;13057;50.978;11.034;2023-03-01T06:49:10;-1.00;99.90
25058;DHT22;13057;50.978;11.034;2023-03-01T06:51:36;-0.90;99.90
25058;DHT22;13057;50.978;11.034;2023-03-01T06:54:04;-0.90;99.90
25058;DHT22;13057;50.978;11.034;2023-03-01T06:56:30;-0.80;99.90
25058;DHT22;13057;50.978;11.034;2023-03-01T06:58:56;-0.60;99.90
25058;DHT22;13057;50.978;11.034;2023-03-01T07:01:22;-0.60;99.90
25058;DHT22;13057;50.978;11.034;2023-03-01T07:03:48;-0.70;99.90
25058;DHT22;13057;50.978;11.034;2023-03-01T07:06:14;-0.70;99.90
25058;DHT22;13057;50.978;11.034;2023-03-01T07:08:40;-0.70;99.90
25058;DHT22;13057;50.978;11.034;2023-03-01T07:11:06;-0.70;99.90
25058;DHT22;13057;50.978;11.034;2023-03-01T07:13:32;-0.70;99.90
25058;DHT22;13057;50.978;11.034;2023-03-01T07:15:58;-0.60;99.90
25058;DHT22;13057;50.978;11.034;2023-03-01T07:18:24;-0.60;99.90
25058;DHT22;13057;50.978;11.034;2023-03-01T07:20:50;-0.60;99.90
25058;DHT22;13057;50.978;11.034;2023-03-01T07:23:16;-0.60;99.90
25058;DHT22;13057;50.978;11.034;2023-03-01T07:25:42;-0.50;99.90
25058;DHT22;13057;50.978;11.034;2023-03-01T07:28:08;-0.50;99.90
25058;DHT22;13057;50.978;11.034;2023-03-01T07:30:34;-0.50;99.90
25058;DHT22;13057;50.978;11.034;2023-03-01T07:33:00;-0.50;99.90
25058;DHT22;13057;50.978;11.034;2023-03-01T07:35:27;-0.40;99.90
25058;DHT22;13057;50.978;11.034;2023-03-01T07:37:53;-0.30;99.90
25058;DHT22;13057;50.978;11.034;2023-03-01T07:40:19;-0.30;99.90
25058;DHT22;13057;50.978;11.034;2023-03-01T07:42:45;-0.20;99.90
25058;DHT22;13057;50.978;11.034;2023-03-01T07:45:11;-0.10;99.90
25058;DHT22;13057;50.978;11.034;2023-03-01T07:47:39;-0.10;99.90
25058;DHT22;13057;50.978;11.034;2023-03-01T07:50:05;0.00;99.90
25058;DHT22;13057;50.978;11.034;2023-03-01T07:52:31;0.10;99.90
25058;DHT22;13057;50.978;11.034;2023-03-01T07:55:00;0.20;99.90
25058;DHT22;13057;50.978;11.034;2023-03-01T07:57:25;0.30;99.90
25058;DHT22;13057;50.978;11.034;2023-03-01T07:59:52;0.40;99.90
25058;DHT22;13057;50.978;11.034;2023-03-01T08:02:21;0.60;99.90
25058;DHT22;13057;50.978;11.034;2023-03-01T08:04:47;0.60;99.90
25058;DHT22;13057;50.978;11.034;2023-03-01T08:07:13;0.70;99.90
25058;DHT22;13057;50.978;11.034;2023-03-01T08:09:38;0.80;99.90
25058;DHT22;13057;50.978;11.034;2023-03-01T08:12:05;0.80;99.90
25058;DHT22;13057;50.978;11.034;2023-03-01T08:14:32;0.90;99.90
25058;DHT22;13057;50.978;11.034;2023-03-01T08:16:58;1.00;99.90
25058;DHT22;13057;50.978;11.034;2023-03-01T08:19:36;1.20;99.90
25058;DHT22;13057;50.978;11.034;2023-03-01T08:22:22;1.50;99.90
25058;DHT22;13057;50.978;11.034;2023-03-01T08:25:06;1.60;99.90
25058;DHT22;13057;50.978;11.034;2023-03-01T08:27:32;1.60;99.90
25058;DHT22;13057;50.978;11.034;2023-03-01T08:29:58;1.70;99.90
25058;DHT22;13057;50.978;11.034;2023-03-01T08:32:24;1.70;99.90
25058;DHT22;13057;50.978;11.034;2023-03-01T08:34:50;2.00;99.90
25058;DHT22;13057;50.978;11.034;2023-03-01T08:37:16;2.00;99.90
25058;DHT22;13057;50.978;11.034;2023-03-01T08:39:41;2.00;99.90
25058;DHT22;13057;50.978;11.034;2023-03-01T08:42:07;2.10;99.70
25058;DHT22;13057;50.978;11.034;2023-03-01T08:44:33;2.10;99.80
25058;DHT22;13057;50.978;11.034;2023-03-01T08:47:00;2.30;99.90
25058;DHT22;13057;50.978;11.034;2023-03-01T08:49:27;2.30;99.80
25058;DHT22;13057;50.978;11.034;2023-03-01T08:51:53;2.40;99.70
25058;DHT22;13057;50.978;11.034;2023-03-01T08:54:21;2.50;99.50
25058;DHT22;13057;50.978;11.034;2023-03-01T08:56:48;2.50;99.40
25058;DHT22;13057;50.978;11.034;2023-03-01T08:59:16;2.50;99.40
25058;DHT22;13057;50.978;11.034;2023-03-01T09:01:42;2.50;99.40
25058;DHT22;13057;50.978;11.034;2023-03-01T09:04:10;2.50;99.40
25058;DHT22;13057;50.978;11.034;2023-03-01T09:06:36;2.40;99.60
25058;DHT22;13057;50.978;11.034;2023-03-01T09:09:04;2.40;99.90
25058;DHT22;13057;50.978;11.034;2023-03-01T09:11:30;2.50;99.90
25058;DHT22;13057;50.978;11.034;2023-03-01T09:13:56;2.60;99.90
25058;DHT22;13057;50.978;11.034;2023-03-01T09:16:24;2.60;99.70
25058;DHT22;13057;50.978;11.034;2023-03-01T09:18:51;2.60;99.90
25058;DHT22;13057;50.978;11.034;2023-03-01T09:21:18;2.60;99.90
25058;DHT22;13057;50.978;11.034;2023-03-01T09:23:47;3.10;99.90
25058;DHT22;13057;50.978;11.034;2023-03-01T09:26:15;3.60;99.40
25058;DHT22;13057;50.978;11.034;2023-03-01T09:28:42;4.10;98.70
25058;DHT22;13057;50.978;11.034;2023-03-01T09:31:08;4.30;97.80
25058;DHT22;13057;50.978;11.034;2023-03-01T09:33:35;4.70;97.50
25058;DHT22;13057;50.978;11.034;2023-03-01T09:36:03;5.00;97.00
25058;DHT22;13057;50.978;11.034;2023-03-01T09:38:30;5.20;96.50
25058;DHT22;13057;50.978;11.034;2023-03-01T09:40:56;5.40;96.40
25058;DHT22;13057;50.978;11.034;2023-03-01T09:43:30;5.50;96.10
25058;DHT22;13057;50.978;11.034;2023-03-01T09:46:04;5.50;96.00
25058;DHT22;13057;50.978;11.034;2023-03-01T09:48:39;5.80;96.10
25058;DHT22;13057;50.978;11.034;2023-03-01T09:51:12;5.90;95.60
25058;DHT22;13057;50.978;11.034;2023-03-01T09:53:40;5.80;95.40
25058;DHT22;13057;50.978;11.034;2023-03-01T09:56:19;5.70;95.50
25058;DHT22;13057;50.978;11.034;2023-03-01T09:58:53;5.60;95.30
25058;DHT22;13057;50.978;11.034;2023-03-01T10:01:32;5.30;95.20
25058;DHT22;13057;50.978;11.034;2023-03-01T10:04:12;5.20;95.50
25058;DHT22;13057;50.978;11.034;2023-03-01T10:06:54;5.00;95.80
25058;DHT22;13057;50.978;11.034;2023-03-01T10:09:23;5.10;95.80
25058;DHT22;13057;50.978;11.034;2023-03-01T10:11:52;5.10;95.90
25058;DHT22;13057;50.978;11.034;2023-03-01T10:14:36;5.10;95.80
25058;DHT22;13057;50.978;11.034;2023-03-01T10:17:12;5.00;95.60
25058;DHT22;13057;50.978;11.034;2023-03-01T10:19:44;5.10;95.60
25058;DHT22;13057;50.978;11.034;2023-03-01T10:22:16;5.10;95.60
25058;DHT22;13057;50.978;11.034;2023-03-01T10:24:43;5.20;95.80
25058;DHT22;13057;50.978;11.034;2023-03-01T10:27:19;5.40;95.80
25058;DHT22;13057;50.978;11.034;2023-03-01T10:29:58;5.50;95.30
25058;DHT22;13057;50.978;11.034;2023-03-01T10:32:26;5.50;95.40
25058;DHT22;13057;50.978;11.034;2023-03-01T10:34:52;5.40;95.20
25058;DHT22;13057;50.978;11.034;2023-03-01T10:37:20;5.30;94.90
25058;DHT22;13057;50.978;11.034;2023-03-01T10:40:05;5.20;95.30
25058;DHT22;13057;50.978;11.034;2023-03-01T10:42:37;5.30;95.40
25058;DHT22;13057;50.978;11.034;2023-03-01T10:45:33;5.40;95.20
25058;DHT22;13057;50.978;11.034;2023-03-01T10:48:12;5.40;94.40
25058;DHT22;13057;50.978;11.034;2023-03-01T10:50:42;5.40;94.00
25058;DHT22;13057;50.978;11.034;2023-03-01T10:53:21;5.40;93.60
25058;DHT22;13057;50.978;11.034;2023-03-01T10:56:02;5.50;93.60
25058;DHT22;13057;50.978;11.034;2023-03-01T10:58:33;5.40;93.40
25058;DHT22;13057;50.978;11.034;2023-03-01T11:01:05;5.20;93.80
25058;DHT22;13057;50.978;11.034;2023-03-01T11:03:34;5.10;94.10
25058;DHT22;13057;50.978;11.034;2023-03-01T11:06:19;5.10;94.40
25058;DHT22;13057;50.978;11.034;2023-03-01T11:08:49;5.00;94.10
25058;DHT22;13057;50.978;11.034;2023-03-01T11:11:23;5.20;94.60
25058;DHT22;13057;50.978;11.034;2023-03-01T11:13:57;5.30;94.70
25058;DHT22;13057;50.978;11.034;2023-03-01T11:16:37;5.50;94.40
25058;DHT22;13057;50.978;11.034;2023-03-01T11:19:16;5.40;94.00
25058;DHT22;13057;50.978;11.034;2023-03-01T11:21:51;5.20;93.90
25058;DHT22;13057;50.978;11.034;2023-03-01T11:24:19;5.20;93.90
25058;DHT22;13057;50.978;11.034;2023-03-01T11:26:52;5.20;94.00
25058;DHT22;13057;50.978;11.034;2023-03-01T11:29:27;5.30;93.70
25058;DHT22;13057;50.978;11.034;2023-03-01T11:31:59;5.40;93.80
25058;DHT22;13057;50.978;11.034;2023-03-01T11:34:47;5.40;93.40
25058;DHT22;13057;50.978;11.034;2023-03-01T11:37:28;5.40;93.60
25058;DHT22;13057;50.978;11.034;2023-03-01T11:40:09;5.30;93.90
25058;DHT22;13057;50.978;11.034;2023-03-01T11:42:55;5.50;93.80
25058;DHT22;13057;50.978;11.034;2023-03-01T11:45:24;5.50;93.10
25058;DHT22;13057;50.978;11.034;2023-03-01T11:48:23;5.40;93.60
25058;DHT22;13057;50.978;11.034;2023-03-01T11:50:52;5.50;93.50
25058;DHT22;13057;50.978;11.034;2023-03-01T11:53:31;5.60;93.80
25058;DHT22;13057;50.978;11.034;2023-03-01T11:56:35;5.60;93.20
25058;DHT22;13057;50.978;11.034;2023-03-01T11:59:02;5.50;93.80
25058;DHT22;13057;50.978;11.034;2023-03-01T12:04:54;5.60;93.40
25058;DHT22;13057;50.978;11.034;2023-03-01T12:07:36;5.40;93.20
25058;DHT22;13057;50.978;11.034;2023-03-01T12:10:19;5.50;93.20
25058;DHT22;13057;50.978;11.034;2023-03-01T12:12:58;5.50;93.20
25058;DHT22;13057;50.978;11.034;2023-03-01T12:15:47;5.50;93.00
25058;DHT22;13057;50.978;11.034;2023-03-01T12:18:27;5.50;92.60
25058;DHT22;13057;50.978;11.034;2023-03-01T12:21:14;5.40;92.20
25058;DHT22;13057;50.978;11.034;2023-03-01T12:24:02;5.50;92.70
25058;DHT22;13057;50.978;11.034;2023-03-01T12:26:34;5.60;92.90
25058;DHT22;13057;50.978;11.034;2023-03-01T12:29:19;5.60;92.70
25058;DHT22;13057;50.978;11.034;2023-03-01T12:32:00;5.80;93.10
25058;DHT22;13057;50.978;11.034;2023-03-01T12:34:51;5.90;93.50
25058;DHT22;13057;50.978;11.034;2023-03-01T12:37:33;5.80;93.50
25058;DHT22;13057;50.978;11.034;2023-03-01T12:40:25;5.70;93.70
25058;DHT22;13057;50.978;11.034;2023-03-01T12:43:21;5.70;94.00
25058;DHT22;13057;50.978;11.034;2023-03-01T12:46:03;5.60;93.60
25058;DHT22;13057;50.978;11.034;2023-03-01T12:48:40;5.60;93.60
25058;DHT22;13057;50.978;11.034;2023-03-01T12:51:13;5.60;93.20
25058;DHT22;13057;50.978;11.034;2023-03-01T12:53:46;5.60;93.00
25058;DHT22;13057;50.978;11.034;2023-03-01T12:56:18;5.60;93.60
25058;DHT22;13057;50.978;11.034;2023-03-01T12:59:06;5.60;93.80
25058;DHT22;13057;50.978;11.034;2023-03-01T13:01:53;5.60;93.10
25058;DHT22;13057;50.978;11.034;2023-03-01T13:04:51;5.50;93.20
25058;DHT22;13057;50.978;11.034;2023-03-01T13:07:27;5.60;93.10
25058;DHT22;13057;50.978;11.034;2023-03-01T13:10:19;5.60;93.10
25058;DHT22;13057;50.978;11.034;2023-03-01T13:12:51;5.60;93.70
25058;DHT22;13057;50.978;11.034;2023-03-01T13:15:32;5.60;93.60
25058;DHT22;13057;50.978;11.034;2023-03-01T13:18:02;5.60;93.60
25058;DHT22;13057;50.978;11.034;2023-03-01T13:20:32;5.70;93.10
25058;DHT22;13057;50.978;11.034;2023-03-01T13:23:03;5.80;92.90
25058;DHT22;13057;50.978;11.034;2023-03-01T13:25:31;5.80;93.00
25058;DHT22;13057;50.978;11.034;2023-03-01T13:30:47;5.90;92.40
25058;DHT22;13057;50.978;11.034;2023-03-01T13:33:37;6.00;92.30
25058;DHT22;13057;50.978;11.034;2023-03-01T13:36:07;6.00;92.40
25058;DHT22;13057;50.978;11.034;2023-03-01T13:38:47;6.00;93.10
25058;DHT22;13057;50.978;11.034;2023-03-01T13:41:15;6.00;93.20
25058;DHT22;13057;50.978;11.034;2023-03-01T13:43:43;6.00;92.20
25058;DHT22;13057;50.978;11.034;2023-03-01T13:46:16;6.10;92.40
25058;DHT22;13057;50.978;11.034;2023-03-01T13:48:45;6.10;92.70
25058;DHT22;13057;50.978;11.034;2023-03-01T13:51:13;6.00;92.80
25058;DHT22;13057;50.978;11.034;2023-03-01T13:53:43;6.00;93.00
25058;DHT22;13057;50.978;11.034;2023-03-01T13:56:21;6.00;93.10
25058;DHT22;13057;50.978;11.034;2023-03-01T13:58:54;6.10;93.20
25058;DHT22;13057;50.978;11.034;2023-03-01T14:01:28;6.10;93.10
25058;DHT22;13057;50.978;11.034;2023-03-01T14:03:56;6.20;93.10
25058;DHT22;13057;50.978;11.034;2023-03-01T14:06:26;6.10;92.90
25058;DHT22;13057;50.978;11.034;2023-03-01T14:09:10;5.90;93.40
25058;DHT22;13057;50.978;11.034;2023-03-01T14:12:06;6.00;94.00
25058;DHT22;13057;50.978;11.034;2023-03-01T14:14:45;6.10;93.60
25058;DHT22;13057;50.978;11.034;2023-03-01T14:17:39;6.10;93.40
25058;DHT22;13057;50.978;11.034;2023-03-01T14:20:16;6.20;93.30
25058;DHT22;13057;50.978;11.034;2023-03-01T14:22:43;6.30;93.60
25058;DHT22;13057;50.978;11.034;2023-03-01T14:25:22;6.30;93.30
25058;DHT22;13057;50.978;11.034;2023-03-01T14:28:00;6.30;93.10
25058;DHT22;13057;50.978;11.034;2023-03-01T14:30:31;6.30;92.90
25058;DHT22;13057;50.978;11.034;2023-03-01T14:33:01;6.20;93.10
25058;DHT22;13057;50.978;11.034;2023-03-01T14:35:31;6.20;92.90
25058;DHT22;13057;50.978;11.034;2023-03-01T14:37:57;6.10;92.90
25058;DHT22;13057;50.978;11.034;2023-03-01T14:40:26;6.20;93.50
25058;DHT22;13057;50.978;11.034;2023-03-01T14:42:55;6.30;93.20
25058;DHT22;13057;50.978;11.034;2023-03-01T14:45:21;6.20;93.20
25058;DHT22;13057;50.978;11.034;2023-03-01T14:47:48;6.20;93.10
25058;DHT22;13057;50.978;11.034;2023-03-01T14:50:24;6.20;93.00
25058;DHT22;13057;50.978;11.034;2023-03-01T14:52:55;6.20;93.10
25058;DHT22;13057;50.978;11.034;2023-03-01T14:55:27;6.00;92.70
25058;DHT22;13057;50.978;11.034;2023-03-01T14:57:54;6.00;92.50
25058;DHT22;13057;50.978;11.034;2023-03-01T15:00:26;6.10;92.70
25058;DHT22;13057;50.978;11.034;2023-03-01T15:02:55;6.10;92.40
25058;DHT22;13057;50.978;11.034;2023-03-01T15:05:30;6.10;92.20
25058;DHT22;13057;50.978;11.034;2023-03-01T15:07:59;6.10;91.80
25058;DHT22;13057;50.978;11.034;2023-03-01T15:10:28;6.10;92.00
25058;DHT22;13057;50.978;11.034;2023-03-01T15:12:55;6.20;92.20
25058;DHT22;13057;50.978;11.034;2023-03-01T15:15:32;6.20;92.20
25058;DHT22;13057;50.978;11.034;2023-03-01T15:18:01;6.20;92.10
25058;DHT22;13057;50.978;11.034;2023-03-01T15:20:29;6.40;92.30
25058;DHT22;13057;50.978;11.034;2023-03-01T15:22:57;6.40;92.00
25058;DHT22;13057;50.978;11.034;2023-03-01T15:25:26;6.30;91.80
25058;DHT22;13057;50.978;11.034;2023-03-01T15:27:54;6.30;92.00
25058;DHT22;13057;50.978;11.034;2023-03-01T15:30:23;6.30;92.20
25058;DHT22;13057;50.978;11.034;2023-03-01T15:33:27;6.30;92.50
25058;DHT22;13057;50.978;11.034;2023-03-01T15:35:56;6.30;92.40
25058;DHT22;13057;50.978;11.034;2023-03-01T15:38:28;6.40;92.30
25058;DHT22;13057;50.978;11.034;2023-03-01T15:40:55;6.30;92.10
25058;DHT22;13057;50.978;11.034;2023-03-01T15:43:37;6.30;92.40
25058;DHT22;13057;50.978;11.034;2023-03-01T15:46:03;6.40;92.60
25058;DHT22;13057;50.978;11.034;2023-03-01T15:48:30;6.40;92.60
25058;DHT22;13057;50.978;11.034;2023-03-01T15:50:58;6.40;92.70
25058;DHT22;13057;50.978;11.034;2023-03-01T15:53:26;6.30;92.60
25058;DHT22;13057;50.978;11.034;2023-03-01T15:55:53;6.30;92.60
25058;DHT22;13057;50.978;11.034;2023-03-01T15:58:23;6.20;92.40